Thunder radar more information blitzortung!


Rain radar more information rain snow radar


altri nostri siti meteo:

PomeziameteoStazione ufficiale di Pomezia

MeteopomeziaSito sulle condizioni meteo



Nessuna attenzione particolare richiesta.    Non ci sono allerte meteo

Report METAR

   
LIMP - Parma
Dati ricevuti: 18-08-2019 08:50
Sereno  
Sereno  
   Vento: W 5.6 km/h
Vento: W 5.6 km/h
Temperatura: 24°C
P.to Rugiada: 19°C
Umidita: 74%
Barometro: 1016 hPa
Visibilita: oltre 10 km
dettagli cloud: Sereno
LIMP 180650Z 25003KT 210V290 CAVOK 24/19 Q1016
LIPE - Bologna
Dati ricevuti: 18-08-2019 09:50
Sereno  
Sereno  
   Vento: West 7.4 km/h
Vento: West 7.4 km/h
Temperatura: 25°C
P.to Rugiada: 16°C
Umidita: 57%
Barometro: 1016 hPa
Visibilita: oltre 10 km
dettagli cloud: Sereno
LIPE 180750Z 28004KT 230V330 CAVOK 25/16 Q1016
LIPO - Brescia/Montichi
Dati ricevuti: 18-08-2019 08:50
Sereno  
Sereno  
   Vento: NE 11.1 km/h
Vento: NE 11.1 km/h
Temperatura: 23°C
P.to Rugiada: 17°C
Umidita: 69%
Barometro: 1016 hPa
Visibilita: oltre 10 km
dettagli cloud: Sereno
LIPO 180650Z 07006KT CAVOK 23/17 Q1016
LIPF - Ferrara
Dati ricevuti: 18-08-2019 08:55
Sereno  
Sereno  
   Vento: Variabile calma
Vento: Variabile calma
Temperatura: 22°C
P.to Rugiada: 19°C
Umidita: 83%
Barometro: 1015 hPa
Visibilita: oltre 10 km
dettagli cloud: Sereno
LIPF 180655Z /////KT CAVOK 22/19 Q1015
LIPL - Ghedi
Dati ricevuti: 18-08-2019 08:55
Sereno  
Sereno  
   Vento: Oriente 5.6 km/h
Vento: Oriente 5.6 km/h
Temperatura: 23°C
P.to Rugiada: 19°C
Umidita: 78%
Barometro: 1015 hPa
Visibilita: oltre 10 km
dettagli cloud: Sereno
LIPL 180655Z 09003KT CAVOK 23/19 Q1015 RMK SKC VIS MIN 9999 WIND THR31 08003KT WIND THR13 08003KT BLU
LIVC - Monte Cimone
Dati ricevuti: 17-08-2019 19:55
DATI Obsoleti
Nebbia  
Nebbia  
   Vento: calma
Vento: calma
Temperatura: 15°C
P.to Rugiada: 11°C
Umidita: 77%
Barometro: 1028 hPa
Visibilita: 0 km
dettagli cloud: Coperto
LIVC 171755Z 00000KT 0300 FG VV/// 15/11 Q1028 RMK MON INVIS VAL INVIS VIS MIN 0300
LIMS - Piacenza
Dati ricevuti: 18-08-2019 08:55
Sereno  
Sereno  
   Vento: West 7.4 km/h
Vento: West 7.4 km/h
Temperatura: 23°C
P.to Rugiada: 20°C
Umidita: 83%
Barometro: 1015 hPa
Visibilita: oltre 10 km
dettagli cloud: Sereno
LIMS 180655Z 27004KT CAVOK 23/20 Q1015
LIMT - Passo della Cisa
Dati ricevuti: 13-04-2018 12:55
DATI Obsoleti
Nebbia  
Nebbia  
   Vento: S 14.8 km/h
Vento: S 14.8 km/h
Temperatura: 6°C
Temperatura Vento: 3°C
P.to Rugiada: 4°C
Umidita: 87%
Barometro: 1013 hPa
Visibilita: 0 km
dettagli cloud: Coperto
LIMT 131055Z 20008KT 0000 FG VV/// 06/04 Q1013 RMK MON INVIS VAL INVIS VIS MIN 0000
LIPU - Padova
Dati ricevuti: 15-08-2019 08:00
DATI Obsoleti
Poche nuvole  
Poche nuvole  
   Vento: Variabile 5.6 km/h
Vento: Variabile 5.6 km/h
Temperatura: 21°C
P.to Rugiada: 15°C
Umidita: 69%
Barometro: 1017 hPa
Nuvole: Poche nuvole
Visibilita: oltre 10 km
dettagli cloud: Poche nuvole 4000 ft
LIPU 150600Z VRB03KT 300V020 9999 FEW040 21/15 Q1017

Script sviluppato da  Saratoga-weather.org Adattato per il modello da  Weerstation Leuven

Strumentazione usata:

Stazione meteo
Davis VP2

Programma gestore dati meteo
WVIEW

Server per i dati meteo
Pc-WDS5

Davis VP2

WVIEW

Pc-WDS5